sensor_id;sensor_type;location;lat;lon;timestamp;pressure;altitude;pressure_sealevel;temperature;humidity
24422;BME280;12600;53.326;-6.298;2023-03-30T00:00:09;99110.63;;;13.29;80.21
24422;BME280;12600;53.326;-6.298;2023-03-30T00:03:05;99112.22;;;13.30;80.86
24422;BME280;12600;53.326;-6.298;2023-03-30T00:05:55;99112.09;;;13.23;81.40
24422;BME280;12600;53.326;-6.298;2023-03-30T00:08:47;99116.28;;;13.17;81.87
24422;BME280;12600;53.326;-6.298;2023-03-30T00:11:36;99122.13;;;13.15;81.92
24422;BME280;12600;53.326;-6.298;2023-03-30T00:14:25;99115.66;;;13.24;81.92
24422;BME280;12600;53.326;-6.298;2023-03-30T00:17:16;99126.88;;;13.19;82.50
24422;BME280;12600;53.326;-6.298;2023-03-30T00:20:07;99108.63;;;13.07;83.06
24422;BME280;12600;53.326;-6.298;2023-03-30T00:22:59;99128.53;;;13.23;83.59
24422;BME280;12600;53.326;-6.298;2023-03-30T00:25:49;99125.66;;;13.16;83.47
24422;BME280;12600;53.326;-6.298;2023-03-30T00:28:39;99096.56;;;13.11;83.15
24422;BME280;12600;53.326;-6.298;2023-03-30T00:31:29;99099.25;;;13.08;83.68
24422;BME280;12600;53.326;-6.298;2023-03-30T00:34:18;99117.44;;;13.16;83.87
24422;BME280;12600;53.326;-6.298;2023-03-30T00:37:10;99126.09;;;13.18;84.26
24422;BME280;12600;53.326;-6.298;2023-03-30T00:39:59;99123.00;;;13.20;83.32
24422;BME280;12600;53.326;-6.298;2023-03-30T00:42:50;99124.91;;;13.19;84.08
24422;BME280;12600;53.326;-6.298;2023-03-30T00:45:39;99127.09;;;13.10;84.46
24422;BME280;12600;53.326;-6.298;2023-03-30T00:48:30;99125.06;;;13.07;85.41
24422;BME280;12600;53.326;-6.298;2023-03-30T00:51:22;99120.31;;;13.04;84.87
24422;BME280;12600;53.326;-6.298;2023-03-30T00:54:15;99120.28;;;13.00;84.92
24422;BME280;12600;53.326;-6.298;2023-03-30T00:57:07;99128.50;;;13.00;85.33
24422;BME280;12600;53.326;-6.298;2023-03-30T00:59:57;99122.50;;;12.95;85.90
24422;BME280;12600;53.326;-6.298;2023-03-30T01:02:52;99121.75;;;12.98;85.49
24422;BME280;12600;53.326;-6.298;2023-03-30T01:05:44;99129.56;;;12.96;84.98
24422;BME280;12600;53.326;-6.298;2023-03-30T01:08:34;99123.72;;;12.97;85.70
24422;BME280;12600;53.326;-6.298;2023-03-30T01:11:24;99120.31;;;13.04;85.25
24422;BME280;12600;53.326;-6.298;2023-03-30T01:14:15;99122.94;;;12.97;85.20
24422;BME280;12600;53.326;-6.298;2023-03-30T01:17:14;99128.34;;;12.93;85.49
24422;BME280;12600;53.326;-6.298;2023-03-30T01:24:38;99145.81;;;12.85;85.36
24422;BME280;12600;53.326;-6.298;2023-03-30T01:28:24;99150.56;;;12.88;85.18
24422;BME280;12600;53.326;-6.298;2023-03-30T01:31:41;99142.50;;;12.76;85.21
24422;BME280;12600;53.326;-6.298;2023-03-30T01:39:04;99169.81;;;12.72;84.62
24422;BME280;12600;53.326;-6.298;2023-03-30T01:41:59;99172.28;;;12.77;84.38
24422;BME280;12600;53.326;-6.298;2023-03-30T01:44:55;99167.22;;;12.79;84.34
24422;BME280;12600;53.326;-6.298;2023-03-30T01:47:53;99143.41;;;12.64;84.19
24422;BME280;12600;53.326;-6.298;2023-03-30T01:50:49;99169.13;;;12.75;84.20
24422;BME280;12600;53.326;-6.298;2023-03-30T01:53:45;99166.66;;;12.70;83.79
24422;BME280;12600;53.326;-6.298;2023-03-30T01:56:43;99164.91;;;12.62;84.00
24422;BME280;12600;53.326;-6.298;2023-03-30T01:59:39;99167.72;;;12.66;84.19
24422;BME280;12600;53.326;-6.298;2023-03-30T02:02:31;99165.69;;;12.63;83.93
24422;BME280;12600;53.326;-6.298;2023-03-30T02:05:23;99164.81;;;12.58;83.88
24422;BME280;12600;53.326;-6.298;2023-03-30T02:08:20;99174.91;;;12.54;83.81
24422;BME280;12600;53.326;-6.298;2023-03-30T02:11:11;99162.44;;;12.57;83.49
24422;BME280;12600;53.326;-6.298;2023-03-30T02:14:03;99159.13;;;12.48;83.46
24422;BME280;12600;53.326;-6.298;2023-03-30T02:16:57;99161.34;;;12.42;83.31
24422;BME280;12600;53.326;-6.298;2023-03-30T02:19:49;99164.78;;;12.39;83.34
24422;BME280;12600;53.326;-6.298;2023-03-30T02:22:39;99163.47;;;12.33;83.73
24422;BME280;12600;53.326;-6.298;2023-03-30T02:25:29;99168.53;;;12.31;83.65
24422;BME280;12600;53.326;-6.298;2023-03-30T02:28:18;99163.84;;;12.31;83.72
24422;BME280;12600;53.326;-6.298;2023-03-30T02:31:12;99157.66;;;12.19;83.68
24422;BME280;12600;53.326;-6.298;2023-03-30T02:34:17;99160.34;;;12.15;83.86
24422;BME280;12600;53.326;-6.298;2023-03-30T02:37:41;99161.13;;;12.16;83.17
24422;BME280;12600;53.326;-6.298;2023-03-30T02:40:41;99157.44;;;12.08;83.38
24422;BME280;12600;53.326;-6.298;2023-03-30T02:43:40;99166.06;;;12.10;83.07
24422;BME280;12600;53.326;-6.298;2023-03-30T02:46:50;99163.16;;;12.03;82.88
24422;BME280;12600;53.326;-6.298;2023-03-30T02:49:54;99158.16;;;12.05;82.71
24422;BME280;12600;53.326;-6.298;2023-03-30T02:52:53;99162.66;;;11.97;82.96
24422;BME280;12600;53.326;-6.298;2023-03-30T02:55:55;99166.81;;;11.91;83.50
24422;BME280;12600;53.326;-6.298;2023-03-30T02:59:20;99158.22;;;11.77;83.39
24422;BME280;12600;53.326;-6.298;2023-03-30T03:02:15;99174.84;;;11.84;83.34
24422;BME280;12600;53.326;-6.298;2023-03-30T03:05:15;99169.38;;;11.84;83.08
24422;BME280;12600;53.326;-6.298;2023-03-30T03:08:14;99154.47;;;11.82;83.17
24422;BME280;12600;53.326;-6.298;2023-03-30T03:11:09;99141.72;;;11.73;82.72
24422;BME280;12600;53.326;-6.298;2023-03-30T03:13:59;99154.69;;;11.76;83.38
24422;BME280;12600;53.326;-6.298;2023-03-30T03:16:52;99145.63;;;11.72;83.39
24422;BME280;12600;53.326;-6.298;2023-03-30T03:19:47;99129.47;;;11.67;83.46
24422;BME280;12600;53.326;-6.298;2023-03-30T03:22:39;99142.16;;;11.75;83.16
24422;BME280;12600;53.326;-6.298;2023-03-30T03:25:28;99139.34;;;11.72;83.42
24422;BME280;12600;53.326;-6.298;2023-03-30T03:28:22;99121.50;;;11.62;83.33
24422;BME280;12600;53.326;-6.298;2023-03-30T03:31:16;99130.50;;;11.63;83.49
24422;BME280;12600;53.326;-6.298;2023-03-30T03:34:06;99110.84;;;11.57;83.46
24422;BME280;12600;53.326;-6.298;2023-03-30T03:37:23;99140.16;;;11.72;82.83
24422;BME280;12600;53.326;-6.298;2023-03-30T03:40:13;99132.63;;;11.54;83.44
24422;BME280;12600;53.326;-6.298;2023-03-30T03:43:04;99136.44;;;11.65;83.37
24422;BME280;12600;53.326;-6.298;2023-03-30T03:45:54;99134.50;;;11.65;83.42
24422;BME280;12600;53.326;-6.298;2023-03-30T03:48:43;99138.38;;;11.64;83.11
24422;BME280;12600;53.326;-6.298;2023-03-30T03:51:33;99145.94;;;11.71;82.71
24422;BME280;12600;53.326;-6.298;2023-03-30T03:54:24;99137.41;;;11.72;82.50
24422;BME280;12600;53.326;-6.298;2023-03-30T03:57:13;99140.41;;;11.67;82.67
24422;BME280;12600;53.326;-6.298;2023-03-30T04:00:05;99134.66;;;11.72;82.42
24422;BME280;12600;53.326;-6.298;2023-03-30T04:03:04;99131.16;;;11.72;82.36
24422;BME280;12600;53.326;-6.298;2023-03-30T04:05:58;99114.09;;;11.63;81.90
24422;BME280;12600;53.326;-6.298;2023-03-30T04:08:48;99134.22;;;11.70;81.62
24422;BME280;12600;53.326;-6.298;2023-03-30T04:12:02;99105.38;;;11.57;81.64
24422;BME280;12600;53.326;-6.298;2023-03-30T04:15:14;99133.59;;;11.61;81.90
24422;BME280;12600;53.326;-6.298;2023-03-30T04:18:21;99132.91;;;11.64;82.08
24422;BME280;12600;53.326;-6.298;2023-03-30T04:21:33;99130.34;;;11.56;82.49
24422;BME280;12600;53.326;-6.298;2023-03-30T04:24:35;99122.41;;;11.51;82.56
24422;BME280;12600;53.326;-6.298;2023-03-30T04:27:48;99119.31;;;11.52;81.97
24422;BME280;12600;53.326;-6.298;2023-03-30T04:30:59;99123.38;;;11.58;82.66
24422;BME280;12600;53.326;-6.298;2023-03-30T04:34:24;99120.03;;;11.49;82.56
24422;BME280;12600;53.326;-6.298;2023-03-30T04:37:47;99134.31;;;11.58;82.01
24422;BME280;12600;53.326;-6.298;2023-03-30T04:40:39;99126.09;;;11.58;82.19
24422;BME280;12600;53.326;-6.298;2023-03-30T04:43:44;99119.41;;;11.56;81.91
24422;BME280;12600;53.326;-6.298;2023-03-30T04:46:53;99133.59;;;11.61;81.47
24422;BME280;12600;53.326;-6.298;2023-03-30T04:50:04;99119.31;;;11.52;81.38
24422;BME280;12600;53.326;-6.298;2023-03-30T04:53:12;99122.16;;;11.56;81.39
24422;BME280;12600;53.326;-6.298;2023-03-30T04:56:22;99126.91;;;11.59;81.47
24422;BME280;12600;53.326;-6.298;2023-03-30T04:59:23;99126.47;;;11.57;81.66
24422;BME280;12600;53.326;-6.298;2023-03-30T05:02:24;99126.91;;;11.59;81.35
24422;BME280;12600;53.326;-6.298;2023-03-30T05:05:34;99132.91;;;11.64;81.07
24422;BME280;12600;53.326;-6.298;2023-03-30T05:08:42;99132.81;;;11.61;81.44
24422;BME280;12600;53.326;-6.298;2023-03-30T05:11:49;99132.91;;;11.64;81.67
24422;BME280;12600;53.326;-6.298;2023-03-30T05:14:54;99126.91;;;11.59;81.60
24422;BME280;12600;53.326;-6.298;2023-03-30T05:17:52;99132.19;;;11.67;81.72
24422;BME280;12600;53.326;-6.298;2023-03-30T05:21:00;99125.22;;;11.70;81.90
24422;BME280;12600;53.326;-6.298;2023-03-30T05:24:10;99129.88;;;11.69;81.44
24422;BME280;12600;53.326;-6.298;2023-03-30T05:27:22;99123.56;;;11.65;81.95
24422;BME280;12600;53.326;-6.298;2023-03-30T05:30:33;99131.75;;;11.65;81.73
24422;BME280;12600;53.326;-6.298;2023-03-30T05:33:31;99139.34;;;11.72;81.56
24422;BME280;12600;53.326;-6.298;2023-03-30T05:36:51;99138.81;;;11.66;81.60
24422;BME280;12600;53.326;-6.298;2023-03-30T05:39:59;99140.31;;;11.64;81.53
24422;BME280;12600;53.326;-6.298;2023-03-30T05:43:21;99144.63;;;11.65;81.84
24422;BME280;12600;53.326;-6.298;2023-03-30T05:46:24;99149.75;;;11.66;81.94
24422;BME280;12600;53.326;-6.298;2023-03-30T05:49:34;99152.25;;;11.71;82.06
24422;BME280;12600;53.326;-6.298;2023-03-30T05:52:31;99154.44;;;11.66;82.47
24422;BME280;12600;53.326;-6.298;2023-03-30T05:55:43;99164.41;;;11.74;82.60
24422;BME280;12600;53.326;-6.298;2023-03-30T05:58:56;99165.19;;;11.74;83.17
24422;BME280;12600;53.326;-6.298;2023-03-30T06:02:15;99165.06;;;11.83;82.64
24422;BME280;12600;53.326;-6.298;2023-03-30T06:05:06;99162.31;;;11.83;82.86
24422;BME280;12600;53.326;-6.298;2023-03-30T06:07:56;99157.75;;;11.87;82.78
24422;BME280;12600;53.326;-6.298;2023-03-30T06:10:51;99156.91;;;11.87;83.20
24422;BME280;12600;53.326;-6.298;2023-03-30T06:13:46;99146.88;;;11.91;83.02
24422;BME280;12600;53.326;-6.298;2023-03-30T06:16:36;99154.34;;;11.94;82.84
24422;BME280;12600;53.326;-6.298;2023-03-30T06:19:32;99163.72;;;11.93;82.67
24422;BME280;12600;53.326;-6.298;2023-03-30T06:22:21;99162.50;;;11.90;82.94
24422;BME280;12600;53.326;-6.298;2023-03-30T06:25:24;99151.63;;;11.94;82.99
24422;BME280;12600;53.326;-6.298;2023-03-30T06:28:14;99135.81;;;11.71;83.21
24422;BME280;12600;53.326;-6.298;2023-03-30T06:31:08;99169.78;;;12.02;83.37
24422;BME280;12600;53.326;-6.298;2023-03-30T06:33:58;99178.47;;;12.04;83.81
24422;BME280;12600;53.326;-6.298;2023-03-30T06:36:50;99176.84;;;12.19;83.25
24422;BME280;12600;53.326;-6.298;2023-03-30T06:39:44;99182.06;;;12.24;83.27
24422;BME280;12600;53.326;-6.298;2023-03-30T06:42:36;99176.22;;;12.25;83.04
24422;BME280;12600;53.326;-6.298;2023-03-30T06:46:02;99192.22;;;12.23;83.42
24422;BME280;12600;53.326;-6.298;2023-03-30T06:48:53;99183.00;;;12.31;83.03
24422;BME280;12600;53.326;-6.298;2023-03-30T06:52:02;99184.88;;;12.27;82.67
24422;BME280;12600;53.326;-6.298;2023-03-30T06:54:55;99180.88;;;12.41;82.72
24422;BME280;12600;53.326;-6.298;2023-03-30T06:57:44;99184.03;;;12.43;82.34
24422;BME280;12600;53.326;-6.298;2023-03-30T07:00:37;99199.78;;;12.46;82.12
24422;BME280;12600;53.326;-6.298;2023-03-30T07:03:50;99189.97;;;12.45;82.50
24422;BME280;12600;53.326;-6.298;2023-03-30T07:07:11;99194.09;;;12.54;82.18
24422;BME280;12600;53.326;-6.298;2023-03-30T07:10:01;99194.06;;;12.70;82.09
24422;BME280;12600;53.326;-6.298;2023-03-30T07:12:57;99201.94;;;13.10;81.99
24422;BME280;12600;53.326;-6.298;2023-03-30T07:15:48;99202.72;;;13.50;82.33
24422;BME280;12600;53.326;-6.298;2023-03-30T07:18:39;99206.75;;;13.79;80.45
24422;BME280;12600;53.326;-6.298;2023-03-30T07:21:29;99225.13;;;13.97;77.89
24422;BME280;12600;53.326;-6.298;2023-03-30T07:24:20;99223.63;;;14.26;79.44
24422;BME280;12600;53.326;-6.298;2023-03-30T07:27:10;99233.81;;;14.26;78.30
24422;BME280;12600;53.326;-6.298;2023-03-30T07:30:02;99224.25;;;13.93;76.11
24422;BME280;12600;53.326;-6.298;2023-03-30T07:33:13;99217.56;;;13.68;75.48
24422;BME280;12600;53.326;-6.298;2023-03-30T07:36:04;99229.00;;;13.51;75.73
24422;BME280;12600;53.326;-6.298;2023-03-30T07:38:54;99237.47;;;13.42;76.28
24422;BME280;12600;53.326;-6.298;2023-03-30T07:41:47;99231.59;;;13.43;76.35
24422;BME280;12600;53.326;-6.298;2023-03-30T07:44:36;99238.25;;;13.42;76.57
24422;BME280;12600;53.326;-6.298;2023-03-30T07:47:28;99235.13;;;13.44;77.22
24422;BME280;12600;53.326;-6.298;2023-03-30T07:50:17;99249.41;;;13.53;77.08
24422;BME280;12600;53.326;-6.298;2023-03-30T07:53:07;99249.94;;;13.59;77.26
24422;BME280;12600;53.326;-6.298;2023-03-30T07:56:01;99262.13;;;13.61;76.99
24422;BME280;12600;53.326;-6.298;2023-03-30T07:59:01;99258.16;;;13.59;77.10
24422;BME280;12600;53.326;-6.298;2023-03-30T08:01:54;99258.66;;;13.64;76.69
24422;BME280;12600;53.326;-6.298;2023-03-30T08:05:08;99243.34;;;13.63;76.45
24422;BME280;12600;53.326;-6.298;2023-03-30T08:08:21;99239.94;;;13.70;76.45
24422;BME280;12600;53.326;-6.298;2023-03-30T08:11:11;99264.34;;;13.75;75.63
24422;BME280;12600;53.326;-6.298;2023-03-30T08:14:04;99255.75;;;13.77;75.07
24422;BME280;12600;53.326;-6.298;2023-03-30T08:16:54;99265.56;;;13.78;75.22
24422;BME280;12600;53.326;-6.298;2023-03-30T08:19:43;99270.94;;;13.93;75.39
24422;BME280;12600;53.326;-6.298;2023-03-30T08:22:32;99267.81;;;14.41;75.18
24422;BME280;12600;53.326;-6.298;2023-03-30T08:25:22;99265.06;;;14.64;73.58
24422;BME280;12600;53.326;-6.298;2023-03-30T08:28:11;99254.16;;;14.97;73.45
24422;BME280;12600;53.326;-6.298;2023-03-30T08:31:06;99264.72;;;15.59;72.91
24422;BME280;12600;53.326;-6.298;2023-03-30T08:33:57;99282.66;;;15.76;69.26
24422;BME280;12600;53.326;-6.298;2023-03-30T08:36:46;99267.50;;;15.96;69.13
24422;BME280;12600;53.326;-6.298;2023-03-30T08:39:36;99282.06;;;16.37;68.14
24422;BME280;12600;53.326;-6.298;2023-03-30T08:45:51;99281.66;;;16.87;63.79
24422;BME280;12600;53.326;-6.298;2023-03-30T08:48:42;99271.81;;;16.89;63.86
24422;BME280;12600;53.326;-6.298;2023-03-30T08:51:34;99280.38;;;16.73;62.30
24422;BME280;12600;53.326;-6.298;2023-03-30T08:54:26;99293.53;;;16.98;62.53
24422;BME280;12600;53.326;-6.298;2023-03-30T08:57:31;99293.97;;;17.07;61.01
24422;BME280;12600;53.326;-6.298;2023-03-30T09:00:31;99294.22;;;16.81;61.19
24422;BME280;12600;53.326;-6.298;2023-03-30T09:03:28;99294.03;;;16.59;61.31
24422;BME280;12600;53.326;-6.298;2023-03-30T09:06:27;99295.09;;;16.44;62.18
24422;BME280;12600;53.326;-6.298;2023-03-30T09:09:21;99298.28;;;16.46;62.01
24422;BME280;12600;53.326;-6.298;2023-03-30T09:12:19;99298.00;;;16.62;61.95
24422;BME280;12600;53.326;-6.298;2023-03-30T09:15:16;99301.69;;;16.76;61.77
24422;BME280;12600;53.326;-6.298;2023-03-30T09:18:14;99295.94;;;17.03;60.98
24422;BME280;12600;53.326;-6.298;2023-03-30T09:21:10;99292.59;;;17.45;60.52
24422;BME280;12600;53.326;-6.298;2023-03-30T09:24:10;99302.97;;;17.80;58.33
24422;BME280;12600;53.326;-6.298;2023-03-30T09:27:04;99322.38;;;18.02;57.75
24422;BME280;12600;53.326;-6.298;2023-03-30T09:30:05;99316.44;;;17.85;57.70
24422;BME280;12600;53.326;-6.298;2023-03-30T09:33:06;99307.38;;;17.96;57.92
24422;BME280;12600;53.326;-6.298;2023-03-30T09:36:13;99306.66;;;18.38;57.79
24422;BME280;12600;53.326;-6.298;2023-03-30T09:39:10;99315.34;;;18.51;54.83
24422;BME280;12600;53.326;-6.298;2023-03-30T09:42:25;99328.41;;;18.86;55.42
24422;BME280;12600;53.326;-6.298;2023-03-30T09:45:21;99316.50;;;19.17;54.40
24422;BME280;12600;53.326;-6.298;2023-03-30T09:48:15;99322.03;;;19.14;53.52
24422;BME280;12600;53.326;-6.298;2023-03-30T09:51:19;99311.34;;;19.12;52.80
24422;BME280;12600;53.326;-6.298;2023-03-30T09:54:14;99321.22;;;19.20;52.41
24422;BME280;12600;53.326;-6.298;2023-03-30T09:57:04;99315.28;;;19.15;52.35
24422;BME280;12600;53.326;-6.298;2023-03-30T09:59:54;99323.13;;;19.41;51.90
24422;BME280;12600;53.326;-6.298;2023-03-30T10:02:55;99321.44;;;19.72;51.64
24422;BME280;12600;53.326;-6.298;2023-03-30T10:06:00;99334.91;;;19.74;50.76
24422;BME280;12600;53.326;-6.298;2023-03-30T10:08:52;99326.31;;;19.33;50.52
24422;BME280;12600;53.326;-6.298;2023-03-30T10:11:46;99334.72;;;18.93;51.71
24422;BME280;12600;53.326;-6.298;2023-03-30T10:14:36;99314.56;;;18.71;53.05
24422;BME280;12600;53.326;-6.298;2023-03-30T10:17:26;99326.00;;;18.24;53.89
24422;BME280;12600;53.326;-6.298;2023-03-30T10:20:25;99335.81;;;18.00;55.22
24422;BME280;12600;53.326;-6.298;2023-03-30T10:23:17;99329.91;;;17.98;55.93
24422;BME280;12600;53.326;-6.298;2023-03-30T10:26:13;99332.69;;;18.05;55.93
24422;BME280;12600;53.326;-6.298;2023-03-30T10:29:11;99328.72;;;18.09;55.88
24422;BME280;12600;53.326;-6.298;2023-03-30T10:32:09;99323.56;;;17.97;56.20
24422;BME280;12600;53.326;-6.298;2023-03-30T10:35:00;99344.03;;;17.78;55.72
24422;BME280;12600;53.326;-6.298;2023-03-30T10:37:54;99341.19;;;17.64;56.19
24422;BME280;12600;53.326;-6.298;2023-03-30T10:40:45;99334.91;;;17.67;56.56
24422;BME280;12600;53.326;-6.298;2023-03-30T10:43:35;99349.09;;;17.69;57.23
24422;BME280;12600;53.326;-6.298;2023-03-30T10:46:26;99353.84;;;17.69;56.77
24422;BME280;12600;53.326;-6.298;2023-03-30T10:49:30;99360.94;;;17.70;56.29
24422;BME280;12600;53.326;-6.298;2023-03-30T10:52:33;99340.88;;;17.73;56.13
24422;BME280;12600;53.326;-6.298;2023-03-30T10:55:42;99339.03;;;18.59;56.28
24422;BME280;12600;53.326;-6.298;2023-03-30T10:59:16;99329.97;;;18.83;53.62
24422;BME280;12600;53.326;-6.298;2023-03-30T11:02:50;99328.38;;;18.89;52.34
24422;BME280;12600;53.326;-6.298;2023-03-30T11:05:45;99335.88;;;19.17;51.40
24422;BME280;12600;53.326;-6.298;2023-03-30T11:08:38;99348.44;;;19.58;50.15
24422;BME280;12600;53.326;-6.298;2023-03-30T11:11:33;99348.88;;;20.26;49.69
24422;BME280;12600;53.326;-6.298;2023-03-30T11:14:35;99343.63;;;20.90;47.92
24422;BME280;12600;53.326;-6.298;2023-03-30T11:17:31;99334.09;;;20.91;46.21
24422;BME280;12600;53.326;-6.298;2023-03-30T11:20:25;99348.53;;;20.76;45.40
24422;BME280;12600;53.326;-6.298;2023-03-30T11:23:22;99353.91;;;20.49;45.83
24422;BME280;12600;53.326;-6.298;2023-03-30T11:26:19;99342.31;;;19.95;47.21
24422;BME280;12600;53.326;-6.298;2023-03-30T11:29:28;99342.66;;;20.07;48.41
24422;BME280;12600;53.326;-6.298;2023-03-30T11:32:26;99334.97;;;20.33;48.29
24422;BME280;12600;53.326;-6.298;2023-03-30T11:35:28;99322.50;;;20.00;48.62
24422;BME280;12600;53.326;-6.298;2023-03-30T11:38:23;99340.38;;;19.88;49.17
24422;BME280;12600;53.326;-6.298;2023-03-30T11:41:15;99352.13;;;20.14;48.53
24422;BME280;12600;53.326;-6.298;2023-03-30T11:44:10;99329.66;;;20.56;46.91
24422;BME280;12600;53.326;-6.298;2023-03-30T11:47:14;99317.69;;;21.45;46.57
24422;BME280;12600;53.326;-6.298;2023-03-30T11:50:21;99325.66;;;22.08;44.35
24422;BME280;12600;53.326;-6.298;2023-03-30T11:53:22;99318.72;;;22.47;43.23
24422;BME280;12600;53.326;-6.298;2023-03-30T11:56:16;99318.97;;;22.79;42.76
24422;BME280;12600;53.326;-6.298;2023-03-30T11:59:21;99321.19;;;23.11;42.79
24422;BME280;12600;53.326;-6.298;2023-03-30T12:02:23;99309.91;;;23.38;42.15
24422;BME280;12600;53.326;-6.298;2023-03-30T12:05:25;99308.50;;;23.70;40.73
24422;BME280;12600;53.326;-6.298;2023-03-30T12:08:34;99303.91;;;24.16;39.81
24422;BME280;12600;53.326;-6.298;2023-03-30T12:11:32;99305.75;;;23.86;39.05
24422;BME280;12600;53.326;-6.298;2023-03-30T12:14:44;99299.53;;;23.98;38.55
24422;BME280;12600;53.326;-6.298;2023-03-30T12:17:45;99295.44;;;23.67;38.34
24422;BME280;12600;53.326;-6.298;2023-03-30T12:20:45;99295.34;;;23.51;39.80
24422;BME280;12600;53.326;-6.298;2023-03-30T12:23:44;99298.75;;;23.78;39.43
24422;BME280;12600;53.326;-6.298;2023-03-30T12:26:35;99291.00;;;24.38;39.26
24422;BME280;12600;53.326;-6.298;2023-03-30T12:29:43;99285.56;;;24.96;37.41
24422;BME280;12600;53.326;-6.298;2023-03-30T12:33:00;99283.50;;;25.42;36.27
24422;BME280;12600;53.326;-6.298;2023-03-30T12:35:56;99279.25;;;25.79;35.86
24422;BME280;12600;53.326;-6.298;2023-03-30T12:38:46;99278.78;;;25.68;35.50
24422;BME280;12600;53.326;-6.298;2023-03-30T12:41:40;99279.19;;;25.66;34.68
24422;BME280;12600;53.326;-6.298;2023-03-30T12:44:46;99279.28;;;25.50;34.32
24422;BME280;12600;53.326;-6.298;2023-03-30T12:47:49;99274.03;;;25.65;35.20
24422;BME280;12600;53.326;-6.298;2023-03-30T12:50:53;99271.19;;;25.81;34.13
24422;BME280;12600;53.326;-6.298;2023-03-30T12:54:15;99279.84;;;25.58;33.16
24422;BME280;12600;53.326;-6.298;2023-03-30T12:57:20;99264.31;;;25.15;34.14
24422;BME280;12600;53.326;-6.298;2023-03-30T13:00:34;99259.84;;;23.91;35.71
24422;BME280;12600;53.326;-6.298;2023-03-30T13:03:37;99265.75;;;22.97;37.61
24422;BME280;12600;53.326;-6.298;2023-03-30T13:06:32;99268.59;;;22.23;39.11
24422;BME280;12600;53.326;-6.298;2023-03-30T13:09:50;99264.75;;;21.56;40.49
24422;BME280;12600;53.326;-6.298;2023-03-30T13:12:41;99257.69;;;21.14;42.98
24422;BME280;12600;53.326;-6.298;2023-03-30T13:15:40;99256.97;;;20.68;43.76
24422;BME280;12600;53.326;-6.298;2023-03-30T13:18:50;99261.72;;;20.23;45.41
24422;BME280;12600;53.326;-6.298;2023-03-30T13:21:54;99255.63;;;19.87;48.09
24422;BME280;12600;53.326;-6.298;2023-03-30T13:24:51;99247.91;;;19.50;48.75
24422;BME280;12600;53.326;-6.298;2023-03-30T13:27:41;99240.97;;;19.10;50.24
24422;BME280;12600;53.326;-6.298;2023-03-30T13:30:36;99230.69;;;19.07;49.79
24422;BME280;12600;53.326;-6.298;2023-03-30T13:33:26;99236.09;;;19.32;48.90
24422;BME280;12600;53.326;-6.298;2023-03-30T13:36:18;99223.50;;;19.23;48.77
24422;BME280;12600;53.326;-6.298;2023-03-30T13:39:17;99238.53;;;19.22;48.97
24422;BME280;12600;53.326;-6.298;2023-03-30T13:42:41;99245.66;;;19.20;48.72
24422;BME280;12600;53.326;-6.298;2023-03-30T13:45:42;99222.59;;;19.41;49.35
24422;BME280;12600;53.326;-6.298;2023-03-30T13:48:49;99236.34;;;20.25;48.92
24422;BME280;12600;53.326;-6.298;2023-03-30T13:51:40;99215.75;;;20.71;47.98
24422;BME280;12600;53.326;-6.298;2023-03-30T13:54:32;99200.72;;;21.02;46.49
24422;BME280;12600;53.326;-6.298;2023-03-30T13:57:32;99199.63;;;21.57;46.90
24422;BME280;12600;53.326;-6.298;2023-03-30T14:00:30;99195.75;;;22.28;42.37
24422;BME280;12600;53.326;-6.298;2023-03-30T14:03:37;99190.66;;;23.10;39.58
24422;BME280;12600;53.326;-6.298;2023-03-30T14:06:31;99191.53;;;23.63;38.52
24422;BME280;12600;53.326;-6.298;2023-03-30T14:09:24;99174.66;;;24.03;37.06
24422;BME280;12600;53.326;-6.298;2023-03-30T14:12:20;99192.09;;;24.23;37.15
24422;BME280;12600;53.326;-6.298;2023-03-30T14:15:18;99175.38;;;24.68;36.93
24422;BME280;12600;53.326;-6.298;2023-03-30T14:18:12;99180.50;;;24.99;36.68
24422;BME280;12600;53.326;-6.298;2023-03-30T14:21:12;99165.28;;;24.87;36.56
24422;BME280;12600;53.326;-6.298;2023-03-30T14:24:04;99156.66;;;24.94;36.59
24422;BME280;12600;53.326;-6.298;2023-03-30T14:27:01;99152.78;;;24.63;35.90
24422;BME280;12600;53.326;-6.298;2023-03-30T14:29:52;99144.34;;;24.79;35.65
24422;BME280;12600;53.326;-6.298;2023-03-30T14:32:42;99142.94;;;24.87;36.40
24422;BME280;12600;53.326;-6.298;2023-03-30T14:35:31;99151.47;;;25.09;35.78
24422;BME280;12600;53.326;-6.298;2023-03-30T14:38:23;99143.28;;;24.60;34.70
24422;BME280;12600;53.326;-6.298;2023-03-30T14:41:16;99118.31;;;24.24;35.56
24422;BME280;12600;53.326;-6.298;2023-03-30T14:44:11;99127.19;;;24.19;36.08
24422;BME280;12600;53.326;-6.298;2023-03-30T14:47:04;99134.19;;;24.11;36.48
24422;BME280;12600;53.326;-6.298;2023-03-30T14:49:56;99128.78;;;24.04;36.46
24422;BME280;12600;53.326;-6.298;2023-03-30T14:52:46;99102.91;;;24.03;37.19
24422;BME280;12600;53.326;-6.298;2023-03-30T14:55:36;99112.34;;;24.22;36.73
24422;BME280;12600;53.326;-6.298;2023-03-30T14:58:29;99104.00;;;24.06;36.07
24422;BME280;12600;53.326;-6.298;2023-03-30T15:01:25;99097.34;;;24.48;35.62
24422;BME280;12600;53.326;-6.298;2023-03-30T15:04:22;99099.69;;;24.50;35.80
24422;BME280;12600;53.326;-6.298;2023-03-30T15:07:13;99102.00;;;24.39;35.22
24422;BME280;12600;53.326;-6.298;2023-03-30T15:10:03;99091.31;;;24.50;35.86
24422;BME280;12600;53.326;-6.298;2023-03-30T15:12:55;99102.34;;;24.53;35.39
24422;BME280;12600;53.326;-6.298;2023-03-30T15:15:45;99087.47;;;24.15;35.65
24422;BME280;12600;53.326;-6.298;2023-03-30T15:18:35;99084.16;;;23.87;35.69
24422;BME280;12600;53.326;-6.298;2023-03-30T15:21:29;99088.81;;;23.61;36.24
24422;BME280;12600;53.326;-6.298;2023-03-30T15:24:24;99083.13;;;23.65;35.95
24422;BME280;12600;53.326;-6.298;2023-03-30T15:27:16;99081.78;;;23.21;36.88
24422;BME280;12600;53.326;-6.298;2023-03-30T15:30:10;99071.00;;;22.86;37.36
24422;BME280;12600;53.326;-6.298;2023-03-30T15:33:05;99074.81;;;22.93;37.65
24422;BME280;12600;53.326;-6.298;2023-03-30T15:35:55;99065.91;;;23.17;37.54
24422;BME280;12600;53.326;-6.298;2023-03-30T15:38:50;99085.31;;;23.05;37.74
24422;BME280;12600;53.326;-6.298;2023-03-30T15:41:46;99069.78;;;22.87;37.08